Advance, Indiana
Current Conditions -  °F | °C
As of 2:15 PM on Friday 21 Nov 2014 (Local Time) from KFKR Reporting Station
Clear Clear  
Wind Chill: -6°   Ceiling: Unl
Heat Index: -1°   Visibility: 10mi
Dew Point: -9°   Wind: 10mph
Humidity: 53%   Direction: 120°ESE
Pressure: 30.44"   Gusts: NA
Location:  40°N, 86.62°W
Report Text: KFKR 211915Z AUTO 12009KT 10SM CLR M01/M09 A3044 RMK AO2 T10071093
Loading
Personal Weather Stations






























Interactive Weather Map New forecast layout! Learn more

10-Day Weather Forecast

Advertisements
Track Severe Weather on mobile